createdAt,value
2023-05-12T00:01:35.016Z,26.67
2023-05-12T00:04:05.916Z,26.82
2023-05-12T00:06:36.610Z,26.92
2023-05-12T00:09:06.806Z,26.81
2023-05-12T00:11:38.289Z,26.71
2023-05-12T00:14:09.092Z,26.71
2023-05-12T00:16:39.222Z,26.76
2023-05-12T00:19:09.858Z,26.66
2023-05-12T00:21:41.673Z,27.10
2023-05-12T00:24:12.085Z,27.14
2023-05-12T00:26:42.186Z,27.19
2023-05-12T00:29:12.324Z,27.23
2023-05-12T00:31:42.378Z,27.07
2023-05-12T00:34:12.555Z,27.45
2023-05-12T00:36:42.606Z,27.43
2023-05-12T00:39:12.773Z,27.60
2023-05-12T00:41:42.911Z,27.70
2023-05-12T00:44:13.024Z,27.70
2023-05-12T00:46:43.377Z,27.71
2023-05-12T00:49:14.097Z,27.78
2023-05-12T00:51:44.456Z,27.59
2023-05-12T00:54:14.669Z,27.78
2023-05-12T00:56:44.898Z,27.86
2023-05-12T00:59:15.114Z,28.02
2023-05-12T01:01:45.621Z,27.98
2023-05-12T01:04:15.953Z,27.99
2023-05-12T01:06:54.318Z,28.24
2023-05-12T01:09:24.722Z,28.13
2023-05-12T01:11:54.903Z,28.12
2023-05-12T01:14:24.975Z,28.04
2023-05-12T01:17:00.284Z,29.02
2023-05-12T01:19:35.996Z,28.25
2023-05-12T01:22:06.414Z,28.19
2023-05-12T01:24:45.215Z,28.43
2023-05-12T01:27:17.417Z,28.08
2023-05-12T01:29:48.553Z,28.28
2023-05-12T01:32:19.290Z,28.40
2023-05-12T01:34:50.874Z,28.34
2023-05-12T01:37:21.003Z,28.51
2023-05-12T01:39:51.223Z,28.70
2023-05-12T01:42:21.757Z,28.63
2023-05-12T01:44:51.883Z,28.68
2023-05-12T01:47:22.205Z,28.66
2023-05-12T01:49:54.503Z,28.68
2023-05-12T01:52:25.373Z,28.62
2023-05-12T01:54:55.401Z,29.02
2023-05-12T01:57:25.671Z,28.86
2023-05-12T01:59:56.119Z,28.87
2023-05-12T02:02:26.326Z,28.96
2023-05-12T02:04:56.570Z,29.01
2023-05-12T02:07:26.649Z,28.90
2023-05-12T02:09:56.738Z,28.97
2023-05-12T02:12:26.814Z,29.08
2023-05-12T02:14:56.979Z,29.13
2023-05-12T02:17:28.931Z,29.24
2023-05-12T02:19:59.052Z,29.18
2023-05-12T02:22:29.387Z,29.18
2023-05-12T02:24:59.492Z,29.22
2023-05-12T02:27:32.605Z,29.48
2023-05-12T02:30:02.778Z,28.98
2023-05-12T02:32:33.159Z,29.40
2023-05-12T02:35:03.403Z,29.40
2023-05-12T02:37:33.535Z,29.61
2023-05-12T02:40:03.820Z,29.58
2023-05-12T02:42:35.768Z,29.55
2023-05-12T02:45:06.521Z,29.73
2023-05-12T02:47:36.749Z,29.72
2023-05-12T02:50:07.486Z,29.60
2023-05-12T02:52:37.611Z,29.90
2023-05-12T02:55:08.151Z,29.86
2023-05-12T02:57:38.397Z,29.96
2023-05-12T03:00:08.873Z,29.84
2023-05-12T03:02:39.919Z,29.98
2023-05-12T03:05:10.216Z,29.86
2023-05-12T03:07:40.380Z,30.11
2023-05-12T03:10:11.010Z,29.85
2023-05-12T03:12:42.112Z,30.14
2023-05-12T03:15:12.239Z,30.21
2023-05-12T03:17:42.454Z,30.38
2023-05-12T03:20:12.763Z,30.33
2023-05-12T03:22:43.350Z,30.45
2023-05-12T03:25:14.153Z,30.25
2023-05-12T03:27:44.404Z,30.25
2023-05-12T03:30:14.724Z,30.33
2023-05-12T03:32:46.397Z,30.38
2023-05-12T03:35:16.729Z,30.29
2023-05-12T03:37:46.836Z,30.43
2023-05-12T03:40:19.106Z,30.55
2023-05-12T03:42:49.475Z,30.44
2023-05-12T03:45:19.624Z,30.35
2023-05-12T03:47:49.884Z,30.55
2023-05-12T03:50:20.219Z,30.47
2023-05-12T03:52:50.512Z,30.55
2023-05-12T03:55:20.649Z,30.52
2023-05-12T03:57:50.818Z,30.43
2023-05-12T04:00:21.399Z,30.50
2023-05-12T04:02:51.665Z,30.66
2023-05-12T04:05:21.955Z,30.82
2023-05-12T04:07:52.529Z,30.52
2023-05-12T04:10:22.902Z,30.46
2023-05-12T04:12:53.012Z,30.75
2023-05-12T04:15:23.438Z,30.65
2023-05-12T04:17:53.692Z,30.64
2023-05-12T04:20:24.188Z,30.70
2023-05-12T04:22:54.424Z,30.31
2023-05-12T04:25:24.578Z,30.56
2023-05-12T04:27:54.699Z,30.68
2023-05-12T04:30:24.802Z,30.56
2023-05-12T04:32:55.074Z,30.62
2023-05-12T04:35:25.531Z,30.48
2023-05-12T04:37:55.778Z,30.98
2023-05-12T04:40:25.915Z,30.76
2023-05-12T04:42:56.281Z,30.83
2023-05-12T04:45:26.553Z,31.01
2023-05-12T04:47:56.750Z,30.93
2023-05-12T04:50:26.944Z,30.76
2023-05-12T04:52:57.153Z,30.89
2023-05-12T04:55:27.346Z,30.64
2023-05-12T04:57:57.463Z,30.69
2023-05-12T05:00:27.557Z,30.58
2023-05-12T05:02:58.229Z,30.74
2023-05-12T05:05:28.447Z,30.58
2023-05-12T05:07:58.571Z,30.81
2023-05-12T05:10:28.796Z,30.79
2023-05-12T05:12:58.823Z,30.96
2023-05-12T05:15:28.926Z,30.80
2023-05-12T05:18:01.700Z,30.78
2023-05-12T05:20:34.773Z,30.80
2023-05-12T05:23:05.365Z,30.77
2023-05-12T05:25:35.901Z,30.87
2023-05-12T05:28:06.766Z,30.69
2023-05-12T05:30:36.846Z,30.52
2023-05-12T05:33:06.988Z,30.36
2023-05-12T05:35:37.124Z,30.51
2023-05-12T05:38:07.347Z,30.50
2023-05-12T05:40:51.627Z,30.27
2023-05-12T05:43:23.022Z,30.21
2023-05-12T05:45:53.307Z,30.39
2023-05-12T05:48:23.586Z,30.53
2023-05-12T05:50:54.377Z,30.16
2023-05-12T05:53:24.549Z,30.26
2023-05-12T05:55:54.740Z,30.38
2023-05-12T05:58:24.944Z,30.45
2023-05-12T06:00:55.125Z,30.33
2023-05-12T06:03:25.334Z,30.22
2023-05-12T06:05:56.296Z,30.29
2023-05-12T06:08:26.362Z,30.09
2023-05-12T06:10:56.557Z,30.19
2023-05-12T06:13:26.829Z,30.27
2023-05-12T06:15:56.989Z,30.46
2023-05-12T06:18:27.096Z,30.37
2023-05-12T06:21:00.047Z,30.40
2023-05-12T06:23:30.363Z,30.12
2023-05-12T06:26:00.505Z,29.99
2023-05-12T06:28:30.828Z,29.88
2023-05-12T06:31:00.994Z,30.03
2023-05-12T06:33:31.062Z,29.96
2023-05-12T06:36:01.192Z,30.01
2023-05-12T06:38:31.399Z,30.03
2023-05-12T06:41:01.571Z,30.17
2023-05-12T06:43:31.780Z,29.95
2023-05-12T06:46:02.259Z,30.03
2023-05-12T06:48:32.520Z,30.16
2023-05-12T06:51:02.728Z,29.84
2023-05-12T06:53:34.062Z,29.83
2023-05-12T06:56:09.322Z,29.76
2023-05-12T06:58:42.852Z,29.77
2023-05-12T07:01:13.146Z,29.74
2023-05-12T07:03:44.018Z,29.55
2023-05-12T07:06:14.563Z,29.55
2023-05-12T07:08:44.789Z,29.33
2023-05-12T07:11:20.296Z,28.91
2023-05-12T07:13:51.075Z,29.23
2023-05-12T07:16:23.817Z,29.20
2023-05-12T07:18:54.098Z,29.10
2023-05-12T07:21:24.660Z,29.33
2023-05-12T07:23:54.780Z,28.94
2023-05-12T07:26:25.339Z,28.69
2023-05-12T07:28:56.124Z,28.57
2023-05-12T07:31:29.013Z,28.56
2023-05-12T07:33:59.274Z,28.53
2023-05-12T07:36:29.433Z,28.71
2023-05-12T07:39:01.124Z,28.70
2023-05-12T07:41:33.803Z,28.49
2023-05-12T07:44:04.728Z,27.89
2023-05-12T07:46:34.864Z,27.37
2023-05-12T07:49:05.206Z,27.46
2023-05-12T07:51:35.764Z,27.41
2023-05-12T07:54:08.575Z,27.06
2023-05-12T07:56:38.856Z,26.86
2023-05-12T07:59:08.948Z,27.07
2023-05-12T08:01:39.231Z,26.56
2023-05-12T08:04:09.706Z,26.37
2023-05-12T08:06:39.968Z,26.24
2023-05-12T08:09:10.114Z,26.33
2023-05-12T08:11:40.327Z,26.08
2023-05-12T08:14:10.650Z,26.09
2023-05-12T08:16:41.108Z,26.12
2023-05-12T08:19:13.198Z,25.61
2023-05-12T08:21:43.419Z,25.78
2023-05-12T08:24:16.477Z,25.56
2023-05-12T08:26:46.660Z,25.44
2023-05-12T08:29:17.440Z,25.24
2023-05-12T08:31:47.688Z,25.45
2023-05-12T08:34:17.872Z,25.57
2023-05-12T08:36:48.054Z,25.10
2023-05-12T08:39:18.357Z,25.12
2023-05-12T08:41:53.660Z,24.28
2023-05-12T08:44:27.432Z,24.82
2023-05-12T08:47:01.030Z,24.65
2023-05-12T08:49:33.897Z,24.64
2023-05-12T08:52:04.964Z,24.52
2023-05-12T08:54:48.530Z,24.68
2023-05-12T08:57:28.712Z,24.29
2023-05-12T09:00:01.479Z,24.02
2023-05-12T09:02:44.629Z,23.87
2023-05-12T09:05:19.139Z,23.70
2023-05-12T09:07:50.650Z,23.81
2023-05-12T09:10:34.335Z,23.37
2023-05-12T09:13:38.594Z,23.50
2023-05-12T09:16:12.366Z,23.04
2023-05-12T09:18:57.577Z,23.02
2023-05-12T09:21:28.704Z,23.74
2023-05-12T09:24:06.564Z,23.03
2023-05-12T09:26:56.018Z,22.88
2023-05-12T09:29:31.647Z,23.16
2023-05-12T09:32:04.399Z,22.98
2023-05-12T09:34:38.636Z,23.29
2023-05-12T09:37:08.861Z,23.11
2023-05-12T09:39:41.500Z,22.98
2023-05-12T09:42:12.846Z,23.12
2023-05-12T09:44:43.227Z,22.99
2023-05-12T09:47:16.264Z,22.96
2023-05-12T09:49:51.716Z,22.61
2023-05-12T09:52:23.546Z,22.70
2023-05-12T09:54:53.871Z,22.84
2023-05-12T09:57:26.380Z,22.44
2023-05-12T09:59:56.671Z,22.32
2023-05-12T10:02:30.389Z,21.91
2023-05-12T10:05:05.514Z,21.55
2023-05-12T10:07:36.824Z,21.65
2023-05-12T10:10:08.723Z,21.70
2023-05-12T10:12:39.406Z,21.88
2023-05-12T10:15:11.163Z,21.45
2023-05-12T10:17:44.123Z,21.23
2023-05-12T10:20:15.501Z,21.26
2023-05-12T10:22:48.244Z,21.64
2023-05-12T10:25:20.830Z,21.17
2023-05-12T10:27:53.363Z,21.13
2023-05-12T10:30:24.279Z,21.25
2023-05-12T10:32:56.628Z,21.08
2023-05-12T10:35:36.865Z,20.23
2023-05-12T10:38:15.201Z,20.21
2023-05-12T10:41:01.448Z,19.64
2023-05-12T10:43:43.223Z,20.01
2023-05-12T10:46:13.321Z,20.30
2023-05-12T10:48:55.559Z,19.82
2023-05-12T10:51:30.851Z,20.40
2023-05-12T10:54:04.081Z,20.28
2023-05-12T10:56:37.633Z,19.99
2023-05-12T10:59:12.970Z,20.30
2023-05-12T11:02:01.871Z,19.02
2023-05-12T11:04:58.965Z,19.42
2023-05-12T11:07:33.091Z,19.98
2023-05-12T11:10:06.090Z,19.88
2023-05-12T11:12:37.526Z,20.10
2023-05-12T11:15:08.299Z,20.06
2023-05-12T11:17:40.854Z,19.75
2023-05-12T11:20:21.833Z,19.73
2023-05-12T11:22:52.929Z,19.94
2023-05-12T11:25:23.416Z,20.12
2023-05-12T11:27:54.002Z,19.80
2023-05-12T11:30:24.293Z,19.43
2023-05-12T11:33:03.994Z,19.21
2023-05-12T11:35:34.579Z,19.50
2023-05-12T11:38:15.873Z,18.66
2023-05-12T11:40:46.167Z,19.33
2023-05-12T11:43:22.188Z,19.01
2023-05-12T11:45:52.347Z,18.06
2023-05-12T11:48:22.646Z,19.28
2023-05-12T11:50:52.944Z,19.30
2023-05-12T11:53:24.759Z,18.59
2023-05-12T11:55:56.557Z,18.85
2023-05-12T11:58:35.838Z,19.39
2023-05-12T12:01:12.022Z,18.69
2023-05-12T12:03:50.350Z,18.55
2023-05-12T12:06:22.672Z,18.91
2023-05-12T12:09:00.052Z,18.23
2023-05-12T12:11:30.925Z,18.89
2023-05-12T12:14:01.807Z,18.75
2023-05-12T12:16:33.745Z,18.05
2023-05-12T12:19:04.026Z,18.37
2023-05-12T12:21:34.292Z,18.04
2023-05-12T12:24:05.625Z,17.72
2023-05-12T12:26:37.188Z,17.23
2023-05-12T12:29:08.848Z,16.30
2023-05-12T12:31:39.209Z,16.02
2023-05-12T12:34:09.959Z,15.79
2023-05-12T12:36:40.208Z,15.90
2023-05-12T12:39:10.765Z,16.02
2023-05-12T12:41:41.307Z,15.84
2023-05-12T12:44:11.481Z,15.40
2023-05-12T12:46:41.673Z,14.82
2023-05-12T12:49:11.849Z,14.63
2023-05-12T12:51:47.209Z,13.61
2023-05-12T12:54:17.551Z,13.50
2023-05-12T12:56:49.195Z,13.04
2023-05-12T12:59:19.266Z,12.74
2023-05-12T13:01:49.537Z,11.98
2023-05-12T13:04:23.062Z,11.81
2023-05-12T13:06:53.469Z,11.46
2023-05-12T13:09:23.681Z,11.14
2023-05-12T13:11:54.034Z,10.45
2023-05-12T13:14:25.161Z,10.10
2023-05-12T13:16:55.373Z,9.83
2023-05-12T13:19:25.482Z,10.18
2023-05-12T13:21:55.576Z,9.99
2023-05-12T13:24:25.697Z,9.75
2023-05-12T13:26:56.759Z,9.43
2023-05-12T13:29:26.925Z,9.29
2023-05-12T13:31:57.329Z,9.51
2023-05-12T13:34:27.493Z,9.22
2023-05-12T13:36:57.673Z,8.82
2023-05-12T13:39:28.420Z,8.85
2023-05-12T13:41:58.593Z,8.37
2023-05-12T13:44:28.943Z,8.28
2023-05-12T13:46:59.178Z,8.40
2023-05-12T13:49:29.480Z,8.00
2023-05-12T13:51:59.653Z,8.51
2023-05-12T13:54:31.614Z,8.10
2023-05-12T13:57:04.110Z,8.28
2023-05-12T13:59:34.279Z,8.05
2023-05-12T14:02:04.628Z,8.08
2023-05-12T14:04:35.139Z,7.81
2023-05-12T14:07:08.316Z,8.23
2023-05-12T14:09:38.825Z,8.20
2023-05-12T14:12:09.330Z,7.63
2023-05-12T14:14:39.532Z,7.58
2023-05-12T14:17:09.895Z,7.68
2023-05-12T14:19:40.034Z,7.59
2023-05-12T14:22:22.318Z,7.75
2023-05-12T14:24:55.962Z,7.53
2023-05-12T14:27:26.166Z,7.54
2023-05-12T14:29:56.323Z,7.66
2023-05-12T14:32:26.895Z,7.53
2023-05-12T14:34:57.407Z,7.07
2023-05-12T14:37:27.555Z,7.15
2023-05-12T14:39:57.701Z,7.34
2023-05-12T14:42:29.585Z,7.60
2023-05-12T14:44:59.872Z,7.72
2023-05-12T14:47:30.167Z,7.37
2023-05-12T14:50:00.279Z,7.38
2023-05-12T14:52:31.348Z,7.33
2023-05-12T14:55:01.440Z,7.63
2023-05-12T14:57:34.052Z,7.85
2023-05-12T15:00:09.030Z,7.87
2023-05-12T15:02:40.616Z,8.01
2023-05-12T15:05:12.295Z,8.23
2023-05-12T15:07:42.492Z,8.43
2023-05-12T15:10:12.702Z,8.74
2023-05-12T15:12:42.826Z,8.78
2023-05-12T15:15:13.119Z,9.05
2023-05-12T15:17:43.600Z,9.40
2023-05-12T15:20:13.830Z,9.77
2023-05-12T15:22:43.911Z,10.14
2023-05-12T15:25:14.092Z,10.40
2023-05-12T15:27:44.215Z,10.45
2023-05-12T15:30:14.679Z,11.17
2023-05-12T15:32:44.918Z,11.06
2023-05-12T15:35:15.065Z,11.41
2023-05-12T15:37:46.499Z,11.73
2023-05-12T15:40:16.795Z,11.97
2023-05-12T15:42:46.987Z,12.27
2023-05-12T15:45:17.291Z,12.54
2023-05-12T15:47:47.479Z,12.81
2023-05-12T15:50:20.074Z,13.15
2023-05-12T15:52:50.978Z,13.16
2023-05-12T15:55:21.538Z,13.01
2023-05-12T15:57:53.756Z,13.04
2023-05-12T16:00:24.015Z,13.19
2023-05-12T16:02:54.906Z,13.84
2023-05-12T16:05:25.776Z,13.76
2023-05-12T16:07:55.923Z,13.93
2023-05-12T16:10:26.101Z,14.26
2023-05-12T16:12:56.537Z,14.45
2023-05-12T16:15:27.489Z,14.27
2023-05-12T16:17:57.703Z,14.45
2023-05-12T16:20:28.001Z,14.44
2023-05-12T16:22:58.501Z,14.88
2023-05-12T16:25:29.831Z,14.65
2023-05-12T16:27:59.953Z,14.96
2023-05-12T16:30:30.220Z,15.24
2023-05-12T16:33:00.466Z,15.21
2023-05-12T16:35:30.977Z,15.33
2023-05-12T16:38:01.085Z,15.43
2023-05-12T16:40:31.629Z,15.68
2023-05-12T16:43:02.199Z,15.77
2023-05-12T16:45:32.386Z,15.66
2023-05-12T16:48:02.555Z,15.67
2023-05-12T16:50:32.614Z,15.88
2023-05-12T16:53:02.765Z,16.08
2023-05-12T16:55:33.397Z,15.85
2023-05-12T16:58:03.658Z,16.37
2023-05-12T17:00:33.990Z,16.47
2023-05-12T17:03:04.869Z,16.19
2023-05-12T17:05:37.177Z,16.41
2023-05-12T17:08:07.161Z,16.72
2023-05-12T17:10:37.647Z,16.61
2023-05-12T17:13:08.165Z,17.08
2023-05-12T17:15:38.979Z,17.24
2023-05-12T17:18:09.224Z,17.18
2023-05-12T17:20:39.706Z,16.96
2023-05-12T17:23:09.895Z,17.20
2023-05-12T17:25:40.075Z,17.73
2023-05-12T17:28:11.016Z,17.50
2023-05-12T17:30:41.754Z,17.73
2023-05-12T17:33:13.599Z,17.68
2023-05-12T17:35:47.113Z,17.69
2023-05-12T17:38:24.742Z,17.65
2023-05-12T17:40:55.572Z,18.17
2023-05-12T17:43:32.433Z,18.24
2023-05-12T17:46:03.149Z,18.13
2023-05-12T17:48:35.648Z,18.28
2023-05-12T17:51:06.543Z,18.62
2023-05-12T17:53:36.726Z,18.67
2023-05-12T17:56:06.977Z,18.85
2023-05-12T17:58:37.187Z,18.71
2023-05-12T18:01:07.386Z,19.05
2023-05-12T18:03:38.125Z,18.93
2023-05-12T18:06:12.894Z,19.33
2023-05-12T18:08:43.484Z,19.25
2023-05-12T18:11:13.741Z,19.33
2023-05-12T18:13:43.883Z,19.78
2023-05-12T18:16:25.272Z,19.69
2023-05-12T18:18:58.672Z,19.72
2023-05-12T18:21:29.047Z,19.81
2023-05-12T18:24:00.142Z,20.25
2023-05-12T18:26:30.945Z,20.29
2023-05-12T18:29:01.167Z,20.27
2023-05-12T18:31:31.508Z,20.65
2023-05-12T18:34:02.392Z,20.54
2023-05-12T18:36:32.507Z,20.78
2023-05-12T18:39:03.033Z,21.07
2023-05-12T18:41:33.182Z,20.86
2023-05-12T18:44:03.282Z,21.23
2023-05-12T18:46:33.425Z,21.55
2023-05-12T18:49:03.985Z,21.51
2023-05-12T18:51:34.226Z,21.56
2023-05-12T18:54:04.674Z,21.81
2023-05-12T18:56:34.736Z,21.55
2023-05-12T18:59:05.006Z,22.37
2023-05-12T19:01:35.600Z,22.00
2023-05-12T19:04:05.834Z,22.28
2023-05-12T19:06:36.223Z,22.35
2023-05-12T19:09:06.323Z,22.32
2023-05-12T19:11:38.139Z,22.47
2023-05-12T19:14:08.328Z,22.75
2023-05-12T19:16:40.318Z,23.10
2023-05-12T19:19:12.380Z,23.11
2023-05-12T19:21:43.405Z,23.34
2023-05-12T19:24:13.713Z,23.42
2023-05-12T19:26:43.923Z,23.23
2023-05-12T19:29:14.372Z,23.22
2023-05-12T19:31:44.586Z,23.35
2023-05-12T19:34:15.229Z,23.44
2023-05-12T19:36:45.358Z,23.28
2023-05-12T19:39:15.545Z,23.66
2023-05-12T19:41:45.833Z,23.73
2023-05-12T19:44:15.957Z,23.65
2023-05-12T19:46:47.212Z,23.75
2023-05-12T19:49:17.380Z,24.10
2023-05-12T19:51:48.964Z,23.90
2023-05-12T19:54:19.102Z,24.35
2023-05-12T19:56:49.263Z,24.46
2023-05-12T19:59:19.332Z,24.33
2023-05-12T20:01:49.563Z,24.39
2023-05-12T20:04:19.858Z,24.44
2023-05-12T20:06:50.824Z,24.35
2023-05-12T20:09:23.324Z,24.67
2023-05-12T20:11:53.456Z,24.32
2023-05-12T20:14:23.596Z,24.45
2023-05-12T20:16:53.774Z,24.61
2023-05-12T20:19:23.960Z,24.61
2023-05-12T20:21:54.116Z,24.80
2023-05-12T20:24:24.287Z,24.90
2023-05-12T20:26:54.389Z,25.07
2023-05-12T20:29:26.053Z,25.13
2023-05-12T20:31:56.656Z,25.28
2023-05-12T20:34:26.757Z,25.49
2023-05-12T20:36:57.694Z,25.38
2023-05-12T20:39:28.546Z,25.24
2023-05-12T20:42:00.196Z,25.25
2023-05-12T20:44:30.297Z,25.39
2023-05-12T20:47:01.148Z,25.70
2023-05-12T20:49:31.290Z,25.59
2023-05-12T20:52:01.389Z,25.69
2023-05-12T20:54:31.593Z,25.75
2023-05-12T20:57:01.673Z,25.76
2023-05-12T20:59:31.803Z,25.76
2023-05-12T21:02:02.088Z,25.77
2023-05-12T21:04:33.243Z,26.19
2023-05-12T21:07:03.313Z,25.96
2023-05-12T21:09:33.457Z,26.13
2023-05-12T21:12:03.893Z,26.26
2023-05-12T21:14:41.228Z,26.78
2023-05-12T21:17:12.238Z,26.23
2023-05-12T21:19:44.201Z,26.34
2023-05-12T21:22:14.510Z,26.35
2023-05-12T21:24:44.713Z,26.43
2023-05-12T21:27:14.869Z,26.64
2023-05-12T21:29:44.974Z,26.66
2023-05-12T21:32:17.040Z,26.80
2023-05-12T21:34:47.257Z,26.73
2023-05-12T21:37:18.352Z,26.68
2023-05-12T21:39:48.461Z,26.88
2023-05-12T21:42:18.524Z,26.94
2023-05-12T21:44:52.265Z,27.20
2023-05-12T21:47:22.435Z,26.98
2023-05-12T21:49:56.064Z,27.57
2023-05-12T21:52:26.175Z,27.04
2023-05-12T21:54:56.382Z,27.25
2023-05-12T21:57:26.765Z,27.27
2023-05-12T21:59:59.149Z,27.50
2023-05-12T22:02:29.345Z,27.22
2023-05-12T22:04:59.477Z,27.52
2023-05-12T22:07:29.674Z,27.48
2023-05-12T22:09:59.793Z,27.41
2023-05-12T22:12:29.977Z,27.57
2023-05-12T22:15:00.188Z,27.71
2023-05-12T22:17:30.329Z,27.80
2023-05-12T22:20:00.643Z,28.08
2023-05-12T22:22:31.086Z,27.63
2023-05-12T22:25:01.189Z,27.94
2023-05-12T22:27:31.469Z,27.88
2023-05-12T22:30:01.527Z,27.79
2023-05-12T22:32:31.660Z,27.95
2023-05-12T22:35:01.791Z,27.86
2023-05-12T22:37:32.079Z,27.96
2023-05-12T22:40:02.719Z,28.03
2023-05-12T22:42:33.121Z,28.09
2023-05-12T22:45:04.929Z,28.24
2023-05-12T22:47:35.307Z,28.06
2023-05-12T22:50:05.787Z,28.27
2023-05-12T22:52:35.941Z,28.37
2023-05-12T22:55:06.460Z,28.49
2023-05-12T22:57:38.696Z,28.44
2023-05-12T23:00:09.871Z,28.66
2023-05-12T23:02:40.158Z,28.46
2023-05-12T23:05:10.638Z,28.71
2023-05-12T23:07:41.136Z,28.43
2023-05-12T23:10:11.777Z,28.58
2023-05-12T23:12:41.929Z,28.61
2023-05-12T23:15:12.356Z,28.77
2023-05-12T23:17:42.484Z,28.70
2023-05-12T23:20:13.091Z,28.48
2023-05-12T23:22:43.154Z,28.85
2023-05-12T23:25:13.325Z,28.74
2023-05-12T23:27:43.389Z,28.70
2023-05-12T23:30:13.856Z,28.93
2023-05-12T23:32:44.066Z,28.86
2023-05-12T23:35:14.299Z,28.70
2023-05-12T23:37:44.425Z,28.99
2023-05-12T23:40:14.651Z,28.85
2023-05-12T23:42:44.763Z,28.91
2023-05-12T23:45:16.097Z,28.85
2023-05-12T23:47:46.181Z,28.92
2023-05-12T23:50:16.721Z,29.17
2023-05-12T23:52:46.835Z,28.98
2023-05-12T23:55:17.148Z,28.97
2023-05-12T23:57:47.681Z,29.00
